Time;durP1;ratioP1;P1;durP2;ratioP2;P2;SDS_P1;SDS_P2;PMS_P1;PMS_P2;Temp;Humidity;BMP_temperature;BMP_pressure;BME280_temperature;BME280_humidity;BME280_pressure;Samples;Min_cycle;Max_cycle;Signal;HPM_P1;HPM_P2
2023/05/28 00:02:00;;;;;;;1.85;1.40;;;9.30;99.90;;;;;;5047340;28;20060;-78
2023/05/28 00:04:28;;;;;;;3.00;1.58;;;9.30;99.90;;;;;;5050784;28;20059;-78
2023/05/28 00:06:55;;;;;;;2.78;1.73;;;9.20;99.90;;;;;;5050593;28;20045;-77
2023/05/28 00:09:23;;;;;;;5.30;2.10;;;9.20;99.90;;;;;;5030947;28;20521;-78
2023/05/28 00:11:51;;;;;;;1.85;1.65;;;9.20;99.90;;;;;;5031282;28;20053;-77
2023/05/28 00:14:20;;;;;;;6.95;2.10;;;9.10;99.90;;;;;;5035216;28;20052;-78
2023/05/28 00:16:50;;;;;;;7.80;2.42;;;9.10;99.90;;;;;;5045250;28;20132;-78
2023/05/28 00:19:18;;;;;;;5.38;1.58;;;9.10;99.90;;;;;;5044487;28;20075;-78
2023/05/28 00:21:46;;;;;;;3.22;1.65;;;9.10;99.90;;;;;;5036278;28;20061;-78
2023/05/28 00:24:14;;;;;;;6.80;2.05;;;9.00;99.90;;;;;;5034712;28;20042;-78
2023/05/28 00:26:41;;;;;;;2.22;2.03;;;9.00;99.90;;;;;;5042298;28;20049;-79
2023/05/28 00:29:09;;;;;;;1.98;1.67;;;9.00;99.90;;;;;;5036054;28;20055;-79
2023/05/28 00:31:38;;;;;;;2.67;1.67;;;9.00;99.90;;;;;;5053714;28;20053;-79
2023/05/28 00:34:06;;;;;;;3.35;1.60;;;9.00;99.90;;;;;;5036788;28;20045;-79
2023/05/28 00:36:34;;;;;;;2.47;2.28;;;9.00;99.90;;;;;;5037888;28;20048;-79
2023/05/28 00:39:04;;;;;;;2.85;1.73;;;9.00;99.90;;;;;;5054490;28;20056;-80
2023/05/28 00:41:35;;;;;;;3.75;1.70;;;8.90;99.90;;;;;;5036102;28;20047;-80
2023/05/28 00:44:02;;;;;;;2.70;1.85;;;8.90;99.90;;;;;;5035047;28;20501;-79
2023/05/28 00:46:31;;;;;;;4.25;2.15;;;8.90;99.90;;;;;;5035556;28;20430;-79
2023/05/28 00:48:59;;;;;;;2.75;1.80;;;8.80;99.90;;;;;;5032772;28;20420;-79
2023/05/28 00:51:27;;;;;;;2.72;2.35;;;8.80;99.90;;;;;;5051618;28;20417;-79
2023/05/28 00:53:55;;;;;;;5.75;2.22;;;8.80;99.90;;;;;;5049883;28;20049;-78
2023/05/28 00:56:24;;;;;;;1.83;1.60;;;8.70;99.90;;;;;;5042450;28;20040;-78
2023/05/28 00:58:53;;;;;;;2.45;1.83;;;8.70;99.90;;;;;;5052678;28;20052;-79
2023/05/28 01:01:21;;;;;;;4.93;2.30;;;8.70;99.90;;;;;;5027805;28;20059;-78
2023/05/28 01:03:49;;;;;;;3.28;1.95;;;8.60;99.90;;;;;;5033390;28;20052;-78
2023/05/28 01:06:20;;;;;;;3.35;2.30;;;8.60;99.90;;;;;;5050954;28;20049;-79
2023/05/28 01:08:49;;;;;;;3.13;2.22;;;8.60;99.90;;;;;;5035032;28;20088;-80
2023/05/28 01:11:20;;;;;;;4.43;2.00;;;8.60;99.90;;;;;;5034373;28;20074;-79
2023/05/28 01:13:48;;;;;;;2.50;1.80;;;8.60;99.90;;;;;;5055091;28;20049;-79
2023/05/28 01:16:18;;;;;;;5.30;2.10;;;8.60;99.90;;;;;;5034212;28;20049;-79
2023/05/28 01:18:47;;;;;;;7.30;2.85;;;8.60;99.90;;;;;;5033876;28;20068;-78
2023/05/28 01:21:16;;;;;;;7.88;2.78;;;8.60;99.90;;;;;;5060427;28;20479;-78
2023/05/28 01:23:47;;;;;;;5.35;2.22;;;8.50;99.90;;;;;;5046310;28;20551;-78
2023/05/28 01:26:17;;;;;;;2.90;1.83;;;8.50;99.90;;;;;;5040366;28;20045;-78
2023/05/28 01:28:45;;;;;;;4.15;2.30;;;8.50;99.90;;;;;;5049844;28;20521;-78
2023/05/28 01:31:13;;;;;;;2.70;1.88;;;8.50;99.90;;;;;;5039533;28;20374;-79
2023/05/28 01:33:41;;;;;;;3.45;2.10;;;8.50;99.90;;;;;;5035038;28;20052;-79
2023/05/28 01:36:16;;;;;;;2.83;1.80;;;8.50;99.90;;;;;;5047561;28;20128;-78
2023/05/28 01:38:48;;;;;;;2.63;1.90;;;8.50;99.90;;;;;;5051319;28;20057;-78
2023/05/28 01:41:16;;;;;;;3.20;2.13;;;8.50;99.90;;;;;;5054193;28;20103;-80
2023/05/28 01:43:46;;;;;;;8.40;2.22;;;8.50;99.90;;;;;;5018112;28;20041;-79
2023/05/28 01:46:14;;;;;;;3.97;1.95;;;8.40;99.90;;;;;;5021347;28;20083;-79
2023/05/28 01:48:42;;;;;;;5.60;2.00;;;8.40;99.90;;;;;;5032914;28;20194;-80
2023/05/28 01:51:11;;;;;;;7.57;1.83;;;8.50;99.90;;;;;;5040951;28;20053;-80
2023/05/28 01:53:39;;;;;;;2.92;1.70;;;8.50;99.90;;;;;;5051055;28;20049;-79
2023/05/28 01:56:10;;;;;;;3.70;2.15;;;8.50;99.90;;;;;;5033958;28;20152;-79
2023/05/28 01:58:38;;;;;;;5.20;2.30;;;8.50;99.90;;;;;;5035311;28;20041;-79
2023/05/28 02:01:15;;;;;;;4.20;1.85;;;8.50;99.90;;;;;;5054367;28;20401;-79
2023/05/28 02:03:44;;;;;;;3.92;2.28;;;8.50;99.90;;;;;;5067528;28;20044;-79
2023/05/28 02:06:13;;;;;;;3.25;2.05;;;8.60;99.90;;;;;;5050909;28;20535;-78
2023/05/28 02:08:42;;;;;;;4.43;2.20;;;8.60;99.90;;;;;;5028439;28;20038;-78
2023/05/28 02:11:11;;;;;;;11.43;2.85;;;8.60;99.90;;;;;;5052425;28;20045;-78
2023/05/28 02:13:39;;;;;;;9.98;1.88;;;8.60;99.90;;;;;;5034177;28;20052;-79
2023/05/28 02:16:07;;;;;;;4.07;2.30;;;8.60;99.90;;;;;;5023704;28;20044;-79
2023/05/28 02:18:37;;;;;;;10.98;3.13;;;8.70;99.90;;;;;;5038214;28;20053;-79
2023/05/28 02:21:06;;;;;;;9.77;3.38;;;8.70;99.90;;;;;;5034164;28;20045;-79
2023/05/28 02:23:33;;;;;;;26.23;4.40;;;8.70;99.90;;;;;;5052846;28;20110;-78
2023/05/28 02:26:01;;;;;;;29.38;6.20;;;8.70;99.90;;;;;;5054471;28;20045;-80
2023/05/28 02:28:30;;;;;;;13.02;4.57;;;8.80;99.90;;;;;;5051524;28;20049;-79
2023/05/28 02:30:57;;;;;;;35.08;6.35;;;8.80;99.90;;;;;;5048595;28;20056;-79
2023/05/28 02:33:25;;;;;;;15.50;5.03;;;8.90;99.90;;;;;;5034564;28;20041;-80
2023/05/28 02:35:52;;;;;;;30.08;5.85;;;9.00;99.90;;;;;;5046424;28;20041;-80
2023/05/28 02:38:20;;;;;;;32.38;8.57;;;9.00;99.90;;;;;;5025535;28;20081;-80
2023/05/28 02:40:48;;;;;;;22.80;7.15;;;9.00;99.90;;;;;;5039490;28;20111;-79
2023/05/28 02:43:15;;;;;;;36.03;7.38;;;9.00;99.90;;;;;;5048374;28;20483;-78
2023/05/28 02:45:45;;;;;;;30.90;8.52;;;9.10;99.90;;;;;;5037776;28;20139;-78
2023/05/28 02:48:13;;;;;;;21.83;7.53;;;9.10;99.90;;;;;;5051605;28;20517;-78
2023/05/28 02:50:41;;;;;;;26.52;7.88;;;9.20;99.90;;;;;;5033318;28;20094;-78
2023/05/28 02:53:34;;;;;;;21.95;7.93;;;9.30;99.90;;;;;;5055204;28;20052;-78
2023/05/28 02:56:01;;;;;;;26.17;7.80;;;9.40;99.90;;;;;;5066425;28;20501;-78
2023/05/28 02:58:30;;;;;;;24.88;7.07;;;9.40;99.90;;;;;;5048762;28;20420;-78
2023/05/28 03:00:59;;;;;;;27.80;7.65;;;9.50;99.90;;;;;;5017375;28;20040;-77
2023/05/28 03:03:27;;;;;;;15.30;7.57;;;9.50;99.90;;;;;;5062039;28;20593;-78
2023/05/28 03:05:56;;;;;;;32.13;7.38;;;9.60;99.90;;;;;;5048529;28;20460;-79
2023/05/28 03:08:24;;;;;;;19.83;6.93;;;9.60;99.90;;;;;;5031072;28;20045;-78
2023/05/28 03:10:51;;;;;;;18.15;6.18;;;9.70;99.90;;;;;;5049537;28;20048;-78
2023/05/28 03:13:19;;;;;;;21.48;6.45;;;9.70;99.90;;;;;;5033705;28;20083;-78
2023/05/28 03:15:47;;;;;;;29.60;7.15;;;9.70;99.90;;;;;;5047833;28;20057;-78
2023/05/28 03:18:17;;;;;;;17.45;6.30;;;9.70;99.90;;;;;;5042449;28;20044;-79
2023/05/28 03:20:45;;;;;;;21.48;6.18;;;9.80;99.90;;;;;;5023617;28;20107;-78
2023/05/28 03:23:13;;;;;;;11.90;5.90;;;9.80;99.90;;;;;;5026500;28;20513;-79
2023/05/28 03:26:04;;;;;;;13.13;5.47;;;9.90;99.90;;;;;;5031919;28;20060;-80
2023/05/28 03:28:31;;;;;;;16.25;5.82;;;10.00;99.90;;;;;;5037560;28;20513;-79
2023/05/28 03:31:17;;;;;;;17.77;6.10;;;10.00;99.90;;;;;;5052153;28;20052;-79
2023/05/28 03:33:46;;;;;;;9.18;5.47;;;10.10;99.90;;;;;;5050975;28;20455;-79
2023/05/28 03:36:14;;;;;;;14.60;5.35;;;10.20;99.90;;;;;;5047304;28;20139;-81
2023/05/28 03:38:42;;;;;;;17.27;6.65;;;10.20;99.90;;;;;;5026970;28;20136;-77
2023/05/28 03:41:10;;;;;;;12.98;5.50;;;10.30;99.90;;;;;;5021095;28;20044;-76
2023/05/28 03:43:38;;;;;;;14.90;6.07;;;10.30;99.90;;;;;;5038050;28;20453;-76
2023/05/28 03:46:05;;;;;;;11.48;5.25;;;10.30;99.90;;;;;;5019622;28;20045;-79
2023/05/28 03:48:33;;;;;;;12.55;5.78;;;10.40;99.90;;;;;;5026091;28;20059;-79
2023/05/28 03:51:04;;;;;;;10.30;5.80;;;10.50;99.90;;;;;;5007943;28;20053;-81
2023/05/28 03:53:31;;;;;;;11.45;5.57;;;10.50;99.90;;;;;;5023113;28;20407;-78
2023/05/28 03:56:01;;;;;;;11.40;6.50;;;10.60;99.90;;;;;;5004081;28;20045;-79
2023/05/28 03:58:30;;;;;;;12.30;6.07;;;10.60;99.90;;;;;;5036451;28;20103;-80
2023/05/28 04:01:01;;;;;;;10.32;5.65;;;10.70;99.90;;;;;;5016967;28;20071;-79
2023/05/28 04:03:29;;;;;;;14.57;5.50;;;10.70;99.90;;;;;;5003231;28;20472;-79
2023/05/28 04:05:56;;;;;;;13.18;5.50;;;10.80;99.90;;;;;;4996293;28;20088;-79
2023/05/28 04:08:26;;;;;;;14.10;5.28;;;10.90;99.90;;;;;;5027663;28;20053;-79
2023/05/28 04:10:53;;;;;;;15.70;4.88;;;11.00;99.90;;;;;;5012192;28;20049;-81
2023/05/28 04:13:22;;;;;;;13.60;4.68;;;11.10;99.90;;;;;;5025498;28;20555;-80
2023/05/28 04:15:49;;;;;;;9.15;4.38;;;11.20;99.90;;;;;;5026486;28;20049;-78
2023/05/28 04:18:17;;;;;;;6.40;3.95;;;11.30;99.90;;;;;;5035793;28;20143;-79
2023/05/28 04:20:45;;;;;;;7.55;3.97;;;11.30;99.90;;;;;;5049470;28;20040;-80
2023/05/28 04:23:15;;;;;;;8.00;3.22;;;11.40;99.90;;;;;;5043170;28;20046;-77
2023/05/28 04:25:45;;;;;;;10.65;2.55;;;11.50;99.90;;;;;;5030349;28;20445;-78
2023/05/28 04:28:14;;;;;;;8.18;2.88;;;11.60;99.90;;;;;;5046842;28;20412;-78
2023/05/28 04:30:41;;;;;;;3.83;2.58;;;11.60;99.90;;;;;;5015710;28;20118;-78
2023/05/28 04:33:11;;;;;;;8.55;2.30;;;11.70;99.90;;;;;;5028933;28;20480;-80
2023/05/28 04:35:39;;;;;;;5.75;2.20;;;11.80;99.90;;;;;;5030910;28;20051;-80
2023/05/28 04:38:08;;;;;;;3.50;2.25;;;11.90;99.90;;;;;;5052346;28;20140;-81
2023/05/28 04:40:35;;;;;;;4.72;2.22;;;11.90;99.90;;;;;;5052031;28;20045;-80
2023/05/28 04:43:04;;;;;;;8.25;3.42;;;12.00;99.90;;;;;;5049818;28;20428;-79
2023/05/28 04:45:34;;;;;;;11.90;4.32;;;12.10;99.90;;;;;;5032368;28;20056;-80
2023/05/28 04:48:02;;;;;;;7.97;3.88;;;12.20;99.90;;;;;;5032249;28;20455;-79
2023/05/28 04:50:30;;;;;;;9.02;4.00;;;12.20;99.90;;;;;;5048806;28;20062;-77
2023/05/28 04:52:57;;;;;;;10.77;3.50;;;12.30;99.90;;;;;;5052404;28;20057;-77
2023/05/28 04:55:27;;;;;;;10.60;3.58;;;12.30;99.90;;;;;;5048855;28;20554;-77
2023/05/28 04:57:55;;;;;;;11.90;3.13;;;12.50;99.90;;;;;;5032502;28;20063;-77
2023/05/28 05:00:26;;;;;;;7.85;2.63;;;12.50;99.90;;;;;;5050140;28;20041;-77
2023/05/28 05:02:56;;;;;;;1.85;1.45;;;12.50;99.90;;;;;;5019083;28;20144;-77
2023/05/28 05:05:27;;;;;;;4.18;2.17;;;12.60;99.90;;;;;;5017430;28;20053;-77
2023/05/28 05:07:55;;;;;;;3.75;2.53;;;12.70;99.90;;;;;;5052776;28;20049;-77
2023/05/28 05:10:23;;;;;;;5.05;1.98;;;12.80;99.90;;;;;;5020141;28;20099;-77
2023/05/28 05:12:52;;;;;;;2.45;1.10;;;12.90;99.90;;;;;;5039469;28;20044;-79
2023/05/28 05:15:20;;;;;;;2.70;1.40;;;13.00;99.90;;;;;;5055811;28;20258;-78
2023/05/28 05:17:49;;;;;;;3.85;1.02;;;13.10;99.90;;;;;;5055856;28;20052;-78
2023/05/28 05:20:17;;;;;;;2.55;1.65;;;13.40;99.90;;;;;;5046187;28;20045;-77
2023/05/28 05:22:45;;;;;;;1.95;0.90;;;13.50;99.90;;;;;;5036482;28;20054;-84
2023/05/28 05:25:12;;;;;;;1.15;1.05;;;13.70;99.90;;;;;;5019085;28;20094;-81
2023/05/28 05:27:43;;;;;;;2.13;1.25;;;13.90;99.90;;;;;;5018758;28;20509;-80
2023/05/28 05:30:11;;;;;;;6.75;1.38;;;14.00;99.90;;;;;;5038762;28;20044;-82
2023/05/28 05:32:39;;;;;;;1.90;1.33;;;14.40;99.90;;;;;;5052973;28;20144;-82
2023/05/28 05:35:09;;;;;;;4.32;1.40;;;14.70;99.90;;;;;;5035246;28;20079;-82
2023/05/28 05:37:57;;;;;;;2.25;1.40;;;15.20;99.90;;;;;;5035218;28;20087;-82
2023/05/28 05:40:29;;;;;;;4.03;1.17;;;15.80;99.90;;;;;;5053065;28;20084;-83
2023/05/28 05:43:20;;;;;;;2.33;0.90;;;16.30;99.90;;;;;;4997937;28;20049;-83
2023/05/28 05:45:47;;;;;;;3.08;1.20;;;16.80;99.90;;;;;;5035143;28;20080;-82
2023/05/28 05:48:15;;;;;;;2.35;1.02;;;17.30;97.00;;;;;;5022191;28;20087;-82
2023/05/28 05:50:54;;;;;;;5.78;1.08;;;17.90;93.60;;;;;;5035126;28;20053;-82
2023/05/28 05:53:23;;;;;;;8.23;1.30;;;18.40;86.80;;;;;;5035129;28;20069;-82
2023/05/28 05:55:51;;;;;;;2.38;1.13;;;18.90;78.10;;;;;;5054365;28;20048;-81
2023/05/28 05:58:19;;;;;;;4.18;1.05;;;19.30;72.10;;;;;;5015035;28;20048;-82
2023/05/28 06:00:48;;;;;;;2.88;1.50;;;19.70;69.00;;;;;;4998724;28;20056;-83
2023/05/28 06:03:15;;;;;;;5.68;1.08;;;20.00;62.90;;;;;;5015478;28;20053;-82
2023/05/28 06:05:59;;;;;;;1.58;1.02;;;19.70;64.00;;;;;;5054487;28;20053;-81
2023/05/28 06:08:46;;;;;;;4.13;1.00;;;20.00;65.20;;;;;;5054930;28;20063;-82
2023/05/28 06:11:23;;;;;;;2.20;0.90;;;20.70;62.60;;;;;;5038330;28;20052;-82
2023/05/28 06:13:51;;;;;;;0.85;0.70;;;21.30;59.50;;;;;;5069408;28;20086;-81
2023/05/28 06:16:29;;;;;;;2.85;0.90;;;21.70;57.90;;;;;;5032864;28;20060;-81
2023/05/28 06:18:58;;;;;;;3.53;1.05;;;22.00;57.90;;;;;;5032191;28;20194;-81
2023/05/28 06:21:29;;;;;;;3.65;1.10;;;22.20;58.10;;;;;;5031205;28;20049;-81
2023/05/28 06:23:59;;;;;;;3.97;1.00;;;22.40;55.00;;;;;;5016193;28;20086;-82
2023/05/28 06:26:27;;;;;;;1.65;1.13;;;22.50;52.70;;;;;;5054088;28;20051;-78
2023/05/28 06:29:06;;;;;;;3.95;1.05;;;22.40;53.90;;;;;;5037314;28;20098;-76
2023/05/28 06:31:46;;;;;;;4.10;1.50;;;22.40;53.90;;;;;;5031098;28;20077;-82
2023/05/28 06:34:16;;;;;;;1.15;1.05;;;22.70;52.90;;;;;;5044723;28;20052;-82
2023/05/28 06:36:50;;;;;;;0.70;0.55;;;23.00;52.20;;;;;;5034730;28;20107;-83
2023/05/28 06:39:20;;;;;;;1.85;0.90;;;23.40;49.30;;;;;;5018103;28;20071;-84
2023/05/28 06:41:50;;;;;;;2.97;1.60;;;23.60;48.90;;;;;;5037624;28;20053;-85
2023/05/28 06:44:50;;;;;;;1.77;1.20;;;23.80;50.30;;;;;;5016218;28;20057;-84
2023/05/28 06:47:17;;;;;;;3.75;1.60;;;23.60;51.90;;;;;;5033412;28;20087;-82
2023/05/28 06:49:46;;;;;;;2.22;1.55;;;23.60;50.90;;;;;;5032958;28;20052;-81
2023/05/28 06:52:19;;;;;;;3.78;1.33;;;23.70;52.40;;;;;;5031554;28;20534;-82
2023/05/28 06:54:48;;;;;;;5.73;1.40;;;24.10;50.70;;;;;;5053331;28;20064;-83
2023/05/28 06:57:16;;;;;;;2.13;1.10;;;24.30;48.90;;;;;;5053148;28;20048;-83
2023/05/28 07:00:09;;;;;;;5.22;1.50;;;24.50;49.60;;;;;;5065454;28;20051;-82
2023/05/28 07:03:19;;;;;;;2.75;0.73;;;24.80;46.80;;;;;;4951127;28;20054;-80
2023/05/28 07:06:05;;;;;;;2.47;2.33;;;25.00;45.50;;;;;;4961978;28;20054;-81
2023/05/28 07:08:34;;;;;;;;;;;25.30;45.80;;;;;;4998299;28;20052;-82
2023/05/28 07:11:02;;;;;;;1.30;1.13;;;25.30;45.40;;;;;;5016747;28;19931;-83
2023/05/28 07:13:30;;;;;;;1.73;1.10;;;25.50;46.00;;;;;;5031788;28;20053;-83
2023/05/28 07:15:58;;;;;;;5.43;1.70;;;25.70;45.90;;;;;;5044288;28;20501;-81
2023/05/28 07:18:26;;;;;;;1.50;1.40;;;25.80;44.90;;;;;;5031723;28;20049;-84
2023/05/28 07:20:53;;;;;;;3.38;1.30;;;25.80;44.00;;;;;;5052745;28;20053;-80
2023/05/28 07:23:32;;;;;;;4.60;1.00;;;25.70;43.90;;;;;;5012960;28;20085;-80
2023/05/28 07:26:01;;;;;;;1.00;0.90;;;26.20;43.10;;;;;;5013248;28;20061;-80
2023/05/28 07:28:28;;;;;;;3.15;0.75;;;26.50;43.30;;;;;;5016866;28;20051;-84
2023/05/28 07:31:00;;;;;;;1.75;0.80;;;26.60;44.20;;;;;;5014311;28;20050;-83
2023/05/28 07:33:27;;;;;;;2.80;0.40;;;26.60;43.90;;;;;;5012743;28;20049;-82
2023/05/28 07:35:55;;;;;;;1.17;0.60;;;26.80;42.40;;;;;;5030626;28;20049;-82
2023/05/28 07:38:22;;;;;;;2.22;0.73;;;27.10;41.90;;;;;;5037251;28;20052;-83
2023/05/28 07:40:55;;;;;;;2.45;0.80;;;27.20;42.20;;;;;;5041347;28;20092;-83
2023/05/28 07:43:30;;;;;;;0.55;0.40;;;27.40;42.30;;;;;;5034920;28;20045;-83
2023/05/28 07:46:02;;;;;;;0.73;0.60;;;27.60;42.90;;;;;;5041452;28;20059;-83
2023/05/28 07:48:38;;;;;;;2.30;0.80;;;27.70;41.50;;;;;;5044609;28;20041;-82
2023/05/28 07:51:19;;;;;;;2.40;1.40;;;27.90;40.80;;;;;;5035232;28;20515;-82
2023/05/28 07:53:55;;;;;;;6.65;2.35;;;27.90;41.40;;;;;;5029164;28;20053;-82
2023/05/28 07:56:24;;;;;;;0.82;0.60;;;27.90;41.80;;;;;;5007586;28;20045;-83
2023/05/28 07:58:54;;;;;;;1.90;0.70;;;28.10;40.90;;;;;;5049804;28;20369;-83
2023/05/28 08:01:24;;;;;;;11.73;3.58;;;28.20;41.50;;;;;;5032417;28;20064;-84
2023/05/28 08:03:54;;;;;;;1.67;0.65;;;28.30;41.20;;;;;;5049717;28;20148;-80
2023/05/28 08:06:26;;;;;;;1.58;0.50;;;28.40;41.20;;;;;;5052539;28;20056;-81
2023/05/28 08:08:53;;;;;;;1.55;0.60;;;28.50;39.50;;;;;;5030795;28;20099;-78
2023/05/28 08:11:21;;;;;;;0.70;0.60;;;28.60;40.70;;;;;;5021815;28;20160;-79
2023/05/28 08:13:49;;;;;;;0.95;0.65;;;28.80;40.20;;;;;;4996990;28;20238;-79
2023/05/28 08:16:19;;;;;;;2.30;0.70;;;28.90;39.20;;;;;;5052691;28;20048;-80
2023/05/28 08:19:10;;;;;;;1.52;0.60;;;28.90;39.70;;;;;;5034877;28;20497;-80
2023/05/28 08:21:39;;;;;;;0.93;0.55;;;28.90;38.80;;;;;;5046809;28;20045;-79
2023/05/28 08:24:09;;;;;;;1.27;0.75;;;29.00;39.60;;;;;;5022161;28;20493;-80
2023/05/28 08:26:49;;;;;;;2.00;0.65;;;29.10;39.40;;;;;;5033734;28;20045;-81
2023/05/28 08:29:19;;;;;;;1.83;0.80;;;29.20;40.10;;;;;;5035233;28;20191;-81
2023/05/28 08:31:59;;;;;;;1.58;0.80;;;29.40;40.40;;;;;;5027487;28;20132;-80
2023/05/28 08:34:33;;;;;;;6.15;0.95;;;29.70;40.60;;;;;;5030425;28;20146;-76
2023/05/28 08:37:02;;;;;;;3.67;0.93;;;29.80;40.30;;;;;;5010636;28;20107;-80
2023/05/28 08:39:34;;;;;;;1.13;1.00;;;30.00;40.10;;;;;;5010255;28;20037;-78
2023/05/28 08:42:03;;;;;;;1.27;0.75;;;30.10;40.00;;;;;;5044279;28;20049;-78
2023/05/28 08:44:32;;;;;;;2.38;1.23;;;30.10;38.50;;;;;;5041994;28;20049;-79
2023/05/28 08:47:02;;;;;;;3.72;0.70;;;29.90;38.60;;;;;;5031112;28;20045;-81
2023/05/28 08:49:42;;;;;;;2.15;1.00;;;29.80;38.60;;;;;;5040422;28;20045;-84
2023/05/28 08:52:13;;;;;;;2.58;0.80;;;29.90;40.30;;;;;;5049938;28;20063;-86
2023/05/28 08:54:42;;;;;;;1.83;0.90;;;30.10;39.70;;;;;;5015675;28;20048;-82
2023/05/28 08:57:11;;;;;;;3.53;0.90;;;30.20;39.00;;;;;;5034308;28;20053;-82
2023/05/28 08:59:50;;;;;;;3.42;1.20;;;30.30;39.50;;;;;;5031643;28;20052;-83
2023/05/28 09:02:21;;;;;;;3.63;1.25;;;30.40;40.10;;;;;;5047161;28;20041;-84
2023/05/28 09:04:49;;;;;;;2.00;0.80;;;30.60;37.80;;;;;;5029473;28;20059;-86
2023/05/28 09:07:19;;;;;;;2.90;0.93;;;30.90;38.60;;;;;;5043880;28;20044;-83
2023/05/28 09:10:12;;;;;;;3.08;1.70;;;31.00;38.10;;;;;;5042321;28;20059;-79
2023/05/28 09:12:49;;;;;;;2.03;0.77;;;31.00;37.00;;;;;;5024409;28;20556;-80
2023/05/28 09:15:23;;;;;;;3.90;1.00;;;31.20;36.50;;;;;;5047589;28;20114;-79
2023/05/28 09:17:52;;;;;;;2.38;0.75;;;31.60;34.70;;;;;;5051891;28;20083;-80
2023/05/28 09:20:26;;;;;;;4.60;1.30;;;31.40;34.20;;;;;;5034576;28;20072;-79
2023/05/28 09:23:03;;;;;;;2.22;0.90;;;31.20;33.80;;;;;;5050163;28;20064;-79
2023/05/28 09:25:51;;;;;;;2.20;0.80;;;31.00;33.90;;;;;;5010671;28;20049;-79
2023/05/28 09:28:27;;;;;;;2.38;0.70;;;30.70;33.80;;;;;;5032523;28;20049;-80
2023/05/28 09:31:03;;;;;;;0.80;0.80;;;30.70;35.60;;;;;;4997219;28;20076;-80
2023/05/28 09:33:33;;;;;;;3.22;1.20;;;30.90;36.00;;;;;;5032035;28;20052;-80
2023/05/28 09:36:02;;;;;;;0.88;0.68;;;30.90;36.80;;;;;;5049793;28;20041;-79
2023/05/28 09:38:39;;;;;;;1.70;0.90;;;31.20;34.90;;;;;;5031901;28;20102;-80
2023/05/28 09:41:20;;;;;;;3.70;0.80;;;31.60;34.00;;;;;;5051489;28;20512;-81
2023/05/28 09:43:56;;;;;;;2.75;1.05;;;31.90;33.80;;;;;;5033420;28;20107;-80
2023/05/28 09:46:29;;;;;;;3.58;0.85;;;31.80;34.40;;;;;;5051878;28;20484;-83
2023/05/28 09:48:59;;;;;;;2.60;0.85;;;31.70;35.60;;;;;;5018458;28;20492;-81
2023/05/28 09:51:30;;;;;;;1.95;0.70;;;31.70;36.00;;;;;;5016154;28;20087;-80
2023/05/28 09:54:00;;;;;;;3.58;0.88;;;31.80;34.80;;;;;;5047587;28;20052;-84
2023/05/28 09:56:31;;;;;;;1.83;1.05;;;32.00;34.10;;;;;;5050245;28;20049;-83
2023/05/28 09:59:00;;;;;;;10.75;2.55;;;32.00;33.90;;;;;;5018312;28;20080;-82
2023/05/28 10:01:40;;;;;;;2.45;1.02;;;31.50;33.40;;;;;;5029489;28;20049;-80
2023/05/28 10:04:10;;;;;;;2.40;1.00;;;31.70;34.60;;;;;;5040061;28;20049;-80
2023/05/28 10:06:40;;;;;;;4.75;1.02;;;32.10;35.10;;;;;;5045245;28;20064;-85
2023/05/28 10:09:09;;;;;;;1.58;0.90;;;31.90;33.80;;;;;;5037158;28;20167;-85
2023/05/28 10:11:44;;;;;;;2.63;0.73;;;31.90;33.50;;;;;;5049662;28;20421;-85
2023/05/28 10:14:12;;;;;;;2.30;0.60;;;31.90;33.20;;;;;;5039165;28;20513;-82
2023/05/28 10:16:41;;;;;;;2.03;0.90;;;32.00;33.20;;;;;;5016878;28;20584;-86
2023/05/28 10:19:11;;;;;;;1.08;0.95;;;31.70;33.70;;;;;;5050701;28;20059;-84
2023/05/28 10:21:38;;;;;;;1.00;0.73;;;31.90;33.00;;;;;;5053075;28;20390;-83
2023/05/28 10:24:07;;;;;;;2.90;0.90;;;32.10;33.30;;;;;;5034791;28;20051;-79
2023/05/28 10:26:34;;;;;;;2.42;1.10;;;32.40;33.00;;;;;;5043209;28;20037;-78
2023/05/28 10:29:08;;;;;;;1.58;1.00;;;32.40;33.60;;;;;;5033105;28;20132;-79
2023/05/28 10:31:35;;;;;;;1.23;1.00;;;32.60;33.00;;;;;;5051339;28;20140;-79
2023/05/28 10:34:06;;;;;;;4.88;0.80;;;32.70;33.10;;;;;;5039971;28;20594;-78
2023/05/28 10:36:51;;;;;;;1.48;1.23;;;32.70;33.30;;;;;;5039462;28;20147;-84
2023/05/28 10:39:19;;;;;;;3.13;1.30;;;32.40;33.00;;;;;;5029505;28;20086;-85
2023/05/28 10:41:47;;;;;;;2.38;1.38;;;32.10;33.00;;;;;;5032414;28;20578;-78
2023/05/28 10:44:14;;;;;;;1.30;0.95;;;31.70;33.50;;;;;;5042860;28;20566;-79
2023/05/28 10:46:43;;;;;;;2.20;1.00;;;32.00;33.70;;;;;;5042004;28;20144;-78
2023/05/28 10:49:14;;;;;;;5.32;0.90;;;32.60;34.10;;;;;;5038315;28;20051;-84
2023/05/28 10:51:57;;;;;;;5.13;1.20;;;33.20;33.60;;;;;;5044269;28;20140;-78
2023/05/28 10:54:41;;;;;;;4.15;1.23;;;33.60;32.00;;;;;;5044615;28;20046;-80
2023/05/28 10:57:13;;;;;;;2.28;1.00;;;33.40;32.60;;;;;;5043716;28;20052;-78
2023/05/28 10:59:48;;;;;;;4.50;0.88;;;33.70;31.10;;;;;;5036507;28;20048;-80
2023/05/28 11:02:19;;;;;;;1.75;0.75;;;33.70;31.80;;;;;;5035018;28;20069;-80
2023/05/28 11:04:47;;;;;;;;;;;33.80;32.70;;;;;;5029116;28;20688;-79
2023/05/28 11:07:16;;;;;;;3.72;1.25;;;34.00;30.80;;;;;;5052054;28;19924;-79
2023/05/28 11:09:48;;;;;;;1.80;0.98;;;34.20;31.00;;;;;;5048603;28;20083;-78
2023/05/28 11:12:16;;;;;;;3.03;0.90;;;34.10;30.40;;;;;;5038669;28;20482;-81
2023/05/28 11:14:46;;;;;;;3.13;2.20;;;33.30;30.50;;;;;;5040774;28;20120;-79
2023/05/28 11:17:14;;;;;;;2.25;1.55;;;33.00;31.60;;;;;;5031611;28;20046;-81
2023/05/28 11:19:47;;;;;;;1.27;1.00;;;32.60;32.20;;;;;;5020743;28;20509;-79
2023/05/28 11:22:18;;;;;;;2.63;1.15;;;32.40;33.50;;;;;;5038155;28;20049;-79
2023/05/28 11:24:58;;;;;;;2.10;1.88;;;32.80;32.10;;;;;;5041599;28;20052;-80
2023/05/28 11:27:28;;;;;;;2.33;1.13;;;32.90;30.40;;;;;;5039079;28;20053;-81
2023/05/28 11:29:59;;;;;;;1.25;1.00;;;32.40;31.50;;;;;;5043035;28;20080;-81
2023/05/28 11:32:28;;;;;;;2.20;1.63;;;32.80;31.40;;;;;;5027240;28;20090;-85
2023/05/28 11:35:04;;;;;;;2.92;1.20;;;33.30;30.50;;;;;;5028141;28;20187;-86
2023/05/28 11:37:46;;;;;;;1.92;0.80;;;33.10;30.60;;;;;;5023025;28;20045;-85
2023/05/28 11:40:16;;;;;;;1.20;0.95;;;33.00;31.40;;;;;;5047717;28;20053;-84
2023/05/28 11:42:45;;;;;;;4.65;0.95;;;33.30;31.50;;;;;;5050211;28;20107;-84
2023/05/28 11:45:14;;;;;;;1.75;1.00;;;33.80;31.70;;;;;;5016455;28;20147;-85
2023/05/28 11:47:42;;;;;;;3.45;0.90;;;33.70;30.90;;;;;;5048860;28;20064;-86
2023/05/28 11:50:12;;;;;;;1.10;0.95;;;34.20;30.20;;;;;;5032234;28;20048;-85
2023/05/28 11:52:41;;;;;;;2.45;1.10;;;34.60;31.60;;;;;;5049017;28;20048;-88
2023/05/28 11:55:10;;;;;;;0.82;0.80;;;34.80;31.50;;;;;;5037627;28;20651;-83
2023/05/28 11:57:39;;;;;;;5.03;0.70;;;35.00;31.50;;;;;;5028964;28;20049;-84
2023/05/28 12:00:11;;;;;;;1.42;0.85;;;34.90;30.40;;;;;;5043032;28;20143;-82
2023/05/28 12:02:45;;;;;;;3.72;2.10;;;35.10;30.70;;;;;;5053434;28;20126;-83
2023/05/28 12:05:14;;;;;;;3.97;1.48;;;35.20;31.10;;;;;;5001159;28;20045;-84
2023/05/28 12:07:47;;;;;;;2.47;1.13;;;35.10;30.00;;;;;;5030510;28;20255;-86
2023/05/28 12:10:20;;;;;;;5.07;1.20;;;34.60;30.00;;;;;;5039438;28;20114;-84
2023/05/28 12:12:51;;;;;;;1.92;1.10;;;34.10;30.80;;;;;;5053496;28;20131;-88
2023/05/28 12:15:23;;;;;;;2.15;0.88;;;34.30;30.70;;;;;;5031397;28;20136;-86
2023/05/28 12:17:57;;;;;;;2.58;0.90;;;34.50;30.00;;;;;;5050030;28;20053;-84
2023/05/28 12:20:33;;;;;;;2.00;1.23;;;34.50;30.40;;;;;;5031436;28;20049;-84
2023/05/28 12:23:06;;;;;;;5.68;0.90;;;34.60;30.40;;;;;;5048521;28;20254;-85
2023/05/28 12:25:50;;;;;;;8.95;4.38;;;35.00;30.10;;;;;;5044657;28;20048;-88
2023/05/28 12:28:20;;;;;;;2.25;0.98;;;35.20;29.20;;;;;;5047196;28;20049;-82
2023/05/28 12:30:52;;;;;;;2.63;0.82;;;34.70;29.30;;;;;;5032017;28;20513;-81
2023/05/28 12:33:21;;;;;;;2.40;0.80;;;34.70;30.80;;;;;;5047062;28;20048;-81
2023/05/28 12:35:50;;;;;;;4.60;1.20;;;35.10;31.30;;;;;;5044453;28;20115;-81
2023/05/28 12:38:20;;;;;;;1.40;0.90;;;35.10;29.60;;;;;;5034247;28;20048;-84
2023/05/28 12:40:48;;;;;;;1.48;1.13;;;34.40;30.00;;;;;;5015658;28;20053;-81
2023/05/28 12:43:16;;;;;;;1.05;0.90;;;34.10;29.90;;;;;;5049380;28;20421;-79
2023/05/28 12:45:43;;;;;;;2.30;1.27;;;34.10;30.50;;;;;;5031205;28;20049;-81
2023/05/28 12:48:11;;;;;;;2.03;1.00;;;34.30;30.50;;;;;;5024656;28;20541;-81
2023/05/28 12:50:39;;;;;;;1.70;1.00;;;34.50;30.40;;;;;;5048039;28;20048;-82
2023/05/28 12:53:07;;;;;;;2.03;1.23;;;35.00;30.30;;;;;;5049674;28;20049;-81
2023/05/28 12:55:36;;;;;;;3.83;1.45;;;35.30;29.60;;;;;;5047499;28;20043;-81
2023/05/28 12:58:03;;;;;;;3.25;1.30;;;35.10;29.90;;;;;;5061868;28;20088;-81
2023/05/28 13:00:31;;;;;;;1.45;1.10;;;34.90;30.10;;;;;;5033461;28;20049;-81
2023/05/28 13:02:59;;;;;;;1.67;0.90;;;34.80;29.90;;;;;;5031213;28;20049;-82
2023/05/28 13:05:27;;;;;;;1.65;1.08;;;35.30;29.90;;;;;;5032547;28;20115;-79
2023/05/28 13:07:55;;;;;;;4.13;1.00;;;35.50;30.40;;;;;;5066788;28;20044;-81